sensor_id;sensor_type;location;lat;lon;timestamp;P1;durP1;ratioP1;P2;durP2;ratioP2
60352;SDS011;46196;52.970;6.954;2022-12-13T00:00:36;40.40;;;18.95;;
60352;SDS011;46196;52.970;6.954;2022-12-13T00:03:02;40.28;;;21.17;;
60352;SDS011;46196;52.970;6.954;2022-12-13T00:05:28;38.38;;;19.92;;
60352;SDS011;46196;52.970;6.954;2022-12-13T00:07:57;47.38;;;21.90;;
60352;SDS011;46196;52.970;6.954;2022-12-13T00:10:23;44.22;;;21.08;;
60352;SDS011;46196;52.970;6.954;2022-12-13T00:12:49;43.05;;;20.08;;
60352;SDS011;46196;52.970;6.954;2022-12-13T00:15:15;42.17;;;19.35;;
60352;SDS011;46196;52.970;6.954;2022-12-13T00:17:41;35.28;;;17.65;;
60352;SDS011;46196;52.970;6.954;2022-12-13T00:20:06;37.88;;;20.30;;
60352;SDS011;46196;52.970;6.954;2022-12-13T00:22:32;39.28;;;19.00;;
60352;SDS011;46196;52.970;6.954;2022-12-13T00:24:58;40.03;;;19.90;;
60352;SDS011;46196;52.970;6.954;2022-12-13T00:27:24;42.55;;;19.52;;
60352;SDS011;46196;52.970;6.954;2022-12-13T00:29:50;37.47;;;18.40;;
60352;SDS011;46196;52.970;6.954;2022-12-13T00:32:15;37.65;;;19.60;;
60352;SDS011;46196;52.970;6.954;2022-12-13T00:34:41;46.55;;;19.98;;
60352;SDS011;46196;52.970;6.954;2022-12-13T00:37:07;39.38;;;19.52;;
60352;SDS011;46196;52.970;6.954;2022-12-13T00:39:33;40.08;;;18.02;;
60352;SDS011;46196;52.970;6.954;2022-12-13T00:41:59;38.80;;;18.70;;
60352;SDS011;46196;52.970;6.954;2022-12-13T00:44:24;37.13;;;17.77;;
60352;SDS011;46196;52.970;6.954;2022-12-13T00:46:50;35.13;;;18.08;;
60352;SDS011;46196;52.970;6.954;2022-12-13T00:49:17;34.80;;;17.95;;
60352;SDS011;46196;52.970;6.954;2022-12-13T00:51:43;33.25;;;17.65;;
60352;SDS011;46196;52.970;6.954;2022-12-13T00:54:09;36.40;;;16.95;;
60352;SDS011;46196;52.970;6.954;2022-12-13T00:56:35;35.63;;;18.02;;
60352;SDS011;46196;52.970;6.954;2022-12-13T00:59:02;32.50;;;16.67;;
60352;SDS011;46196;52.970;6.954;2022-12-13T01:01:31;37.58;;;17.90;;
60352;SDS011;46196;52.970;6.954;2022-12-13T01:04:00;40.03;;;18.05;;
60352;SDS011;46196;52.970;6.954;2022-12-13T01:09:09;36.03;;;18.73;;
60352;SDS011;46196;52.970;6.954;2022-12-13T01:11:41;34.33;;;18.98;;
60352;SDS011;46196;52.970;6.954;2022-12-13T01:14:07;31.77;;;16.75;;
60352;SDS011;46196;52.970;6.954;2022-12-13T01:16:33;31.95;;;16.48;;
60352;SDS011;46196;52.970;6.954;2022-12-13T01:18:59;32.47;;;17.70;;
60352;SDS011;46196;52.970;6.954;2022-12-13T01:21:24;36.67;;;17.90;;
60352;SDS011;46196;52.970;6.954;2022-12-13T01:23:50;32.75;;;16.80;;
60352;SDS011;46196;52.970;6.954;2022-12-13T01:26:17;32.72;;;16.35;;
60352;SDS011;46196;52.970;6.954;2022-12-13T01:28:45;39.92;;;18.08;;
60352;SDS011;46196;52.970;6.954;2022-12-13T01:31:13;34.63;;;16.38;;
60352;SDS011;46196;52.970;6.954;2022-12-13T01:33:41;30.95;;;15.57;;
60352;SDS011;46196;52.970;6.954;2022-12-13T01:36:08;27.98;;;15.88;;
60352;SDS011;46196;52.970;6.954;2022-12-13T01:38:37;30.30;;;15.88;;
60352;SDS011;46196;52.970;6.954;2022-12-13T01:41:03;35.50;;;15.60;;
60352;SDS011;46196;52.970;6.954;2022-12-13T01:46:01;30.98;;;16.15;;
60352;SDS011;46196;52.970;6.954;2022-12-13T01:48:30;32.53;;;16.23;;
60352;SDS011;46196;52.970;6.954;2022-12-13T01:51:00;30.73;;;16.02;;
60352;SDS011;46196;52.970;6.954;2022-12-13T01:53:30;33.40;;;16.38;;
60352;SDS011;46196;52.970;6.954;2022-12-13T01:56:01;31.77;;;16.27;;
60352;SDS011;46196;52.970;6.954;2022-12-13T01:58:31;31.55;;;16.58;;
60352;SDS011;46196;52.970;6.954;2022-12-13T02:00:59;29.23;;;15.32;;
60352;SDS011;46196;52.970;6.954;2022-12-13T02:03:25;32.13;;;16.42;;
60352;SDS011;46196;52.970;6.954;2022-12-13T02:05:58;34.50;;;16.73;;
60352;SDS011;46196;52.970;6.954;2022-12-13T02:08:40;29.48;;;15.35;;
60352;SDS011;46196;52.970;6.954;2022-12-13T02:11:09;32.83;;;14.45;;
60352;SDS011;46196;52.970;6.954;2022-12-13T02:13:36;28.85;;;15.73;;
60352;SDS011;46196;52.970;6.954;2022-12-13T02:21:46;41.25;;;19.90;;
60352;SDS011;46196;52.970;6.954;2022-12-13T02:35:16;31.27;;;16.13;;
60352;SDS011;46196;52.970;6.954;2022-12-13T02:38:17;31.52;;;15.98;;
60352;SDS011;46196;52.970;6.954;2022-12-13T02:41:18;30.85;;;17.27;;
60352;SDS011;46196;52.970;6.954;2022-12-13T02:43:58;29.23;;;16.95;;
60352;SDS011;46196;52.970;6.954;2022-12-13T02:46:33;31.20;;;17.60;;
60352;SDS011;46196;52.970;6.954;2022-12-13T02:49:03;38.25;;;17.02;;
60352;SDS011;46196;52.970;6.954;2022-12-13T02:51:31;35.40;;;17.38;;
60352;SDS011;46196;52.970;6.954;2022-12-13T02:53:58;31.35;;;16.45;;
60352;SDS011;46196;52.970;6.954;2022-12-13T02:56:24;31.05;;;17.17;;
60352;SDS011;46196;52.970;6.954;2022-12-13T02:58:51;33.45;;;17.30;;
60352;SDS011;46196;52.970;6.954;2022-12-13T03:06:56;30.25;;;15.85;;
60352;SDS011;46196;52.970;6.954;2022-12-13T03:09:55;36.17;;;17.02;;
60352;SDS011;46196;52.970;6.954;2022-12-13T03:12:47;34.80;;;17.60;;
60352;SDS011;46196;52.970;6.954;2022-12-13T03:15:41;34.92;;;16.27;;
60352;SDS011;46196;52.970;6.954;2022-12-13T03:18:16;35.83;;;16.40;;
60352;SDS011;46196;52.970;6.954;2022-12-13T03:20:54;29.40;;;15.15;;
60352;SDS011;46196;52.970;6.954;2022-12-13T03:23:22;35.05;;;16.95;;
60352;SDS011;46196;52.970;6.954;2022-12-13T03:25:49;36.17;;;16.63;;
60352;SDS011;46196;52.970;6.954;2022-12-13T03:28:18;35.72;;;17.05;;
60352;SDS011;46196;52.970;6.954;2022-12-13T03:30:44;35.28;;;18.77;;
60352;SDS011;46196;52.970;6.954;2022-12-13T03:33:10;37.55;;;18.10;;
60352;SDS011;46196;52.970;6.954;2022-12-13T03:35:35;35.63;;;17.80;;
60352;SDS011;46196;52.970;6.954;2022-12-13T03:38:03;33.60;;;17.58;;
60352;SDS011;46196;52.970;6.954;2022-12-13T03:40:29;36.78;;;18.70;;
60352;SDS011;46196;52.970;6.954;2022-12-13T03:42:57;35.53;;;17.73;;
60352;SDS011;46196;52.970;6.954;2022-12-13T03:45:23;36.42;;;17.48;;
60352;SDS011;46196;52.970;6.954;2022-12-13T03:47:49;34.22;;;17.20;;
60352;SDS011;46196;52.970;6.954;2022-12-13T03:50:14;33.63;;;17.50;;
60352;SDS011;46196;52.970;6.954;2022-12-13T03:52:40;38.97;;;18.20;;
60352;SDS011;46196;52.970;6.954;2022-12-13T03:55:07;36.95;;;17.25;;
60352;SDS011;46196;52.970;6.954;2022-12-13T03:57:32;37.13;;;18.23;;
60352;SDS011;46196;52.970;6.954;2022-12-13T03:59:58;37.80;;;17.80;;
60352;SDS011;46196;52.970;6.954;2022-12-13T04:02:24;41.97;;;19.23;;
60352;SDS011;46196;52.970;6.954;2022-12-13T04:04:50;39.15;;;18.95;;
60352;SDS011;46196;52.970;6.954;2022-12-13T04:07:15;40.42;;;18.50;;
60352;SDS011;46196;52.970;6.954;2022-12-13T04:09:41;39.60;;;17.95;;
60352;SDS011;46196;52.970;6.954;2022-12-13T04:12:07;40.65;;;19.15;;
60352;SDS011;46196;52.970;6.954;2022-12-13T04:14:51;41.35;;;19.27;;
60352;SDS011;46196;52.970;6.954;2022-12-13T04:17:17;39.28;;;18.98;;
60352;SDS011;46196;52.970;6.954;2022-12-13T04:19:43;40.45;;;19.27;;
60352;SDS011;46196;52.970;6.954;2022-12-13T04:22:08;38.10;;;19.10;;
60352;SDS011;46196;52.970;6.954;2022-12-13T04:24:34;41.10;;;18.80;;
60352;SDS011;46196;52.970;6.954;2022-12-13T04:27:00;42.47;;;21.23;;
60352;SDS011;46196;52.970;6.954;2022-12-13T04:29:26;37.83;;;18.90;;
60352;SDS011;46196;52.970;6.954;2022-12-13T04:31:52;37.00;;;19.15;;
60352;SDS011;46196;52.970;6.954;2022-12-13T04:34:17;43.42;;;20.05;;
60352;SDS011;46196;52.970;6.954;2022-12-13T04:36:43;39.33;;;20.75;;
60352;SDS011;46196;52.970;6.954;2022-12-13T04:39:09;42.13;;;20.23;;
60352;SDS011;46196;52.970;6.954;2022-12-13T04:41:35;46.45;;;21.73;;
60352;SDS011;46196;52.970;6.954;2022-12-13T04:44:03;44.83;;;20.83;;
60352;SDS011;46196;52.970;6.954;2022-12-13T04:46:29;42.05;;;20.25;;
60352;SDS011;46196;52.970;6.954;2022-12-13T04:48:55;43.78;;;20.88;;
60352;SDS011;46196;52.970;6.954;2022-12-13T04:51:21;42.92;;;20.73;;
60352;SDS011;46196;52.970;6.954;2022-12-13T04:53:47;45.65;;;21.17;;
60352;SDS011;46196;52.970;6.954;2022-12-13T04:56:13;43.72;;;19.77;;
60352;SDS011;46196;52.970;6.954;2022-12-13T04:58:39;46.35;;;21.15;;
60352;SDS011;46196;52.970;6.954;2022-12-13T05:01:05;45.75;;;20.75;;
60352;SDS011;46196;52.970;6.954;2022-12-13T05:03:35;39.33;;;18.95;;
60352;SDS011;46196;52.970;6.954;2022-12-13T05:06:05;41.58;;;20.52;;
60352;SDS011;46196;52.970;6.954;2022-12-13T05:08:32;51.47;;;22.50;;
60352;SDS011;46196;52.970;6.954;2022-12-13T05:10:57;45.78;;;20.85;;
60352;SDS011;46196;52.970;6.954;2022-12-13T05:13:23;44.90;;;23.05;;
60352;SDS011;46196;52.970;6.954;2022-12-13T05:15:56;51.15;;;21.23;;
60352;SDS011;46196;52.970;6.954;2022-12-13T05:18:22;51.65;;;22.30;;
60352;SDS011;46196;52.970;6.954;2022-12-13T05:20:49;52.88;;;24.23;;
60352;SDS011;46196;52.970;6.954;2022-12-13T05:23:15;48.88;;;21.55;;
60352;SDS011;46196;52.970;6.954;2022-12-13T05:25:42;50.28;;;22.55;;
60352;SDS011;46196;52.970;6.954;2022-12-13T05:28:08;39.45;;;20.25;;
60352;SDS011;46196;52.970;6.954;2022-12-13T05:30:36;47.45;;;19.90;;
60352;SDS011;46196;52.970;6.954;2022-12-13T05:33:02;60.07;;;22.80;;
60352;SDS011;46196;52.970;6.954;2022-12-13T05:35:28;76.03;;;22.15;;
60352;SDS011;46196;52.970;6.954;2022-12-13T05:37:54;80.53;;;21.17;;
60352;SDS011;46196;52.970;6.954;2022-12-13T05:40:20;45.65;;;18.42;;
60352;SDS011;46196;52.970;6.954;2022-12-13T05:42:47;47.00;;;21.08;;
60352;SDS011;46196;52.970;6.954;2022-12-13T05:45:13;38.17;;;17.60;;
60352;SDS011;46196;52.970;6.954;2022-12-13T05:47:41;61.28;;;23.75;;
60352;SDS011;46196;52.970;6.954;2022-12-13T05:50:07;46.20;;;19.58;;
60352;SDS011;46196;52.970;6.954;2022-12-13T05:52:33;63.97;;;22.38;;
60352;SDS011;46196;52.970;6.954;2022-12-13T05:54:59;111.13;;;22.25;;
60352;SDS011;46196;52.970;6.954;2022-12-13T05:57:24;88.22;;;25.23;;
60352;SDS011;46196;52.970;6.954;2022-12-13T05:59:51;72.22;;;21.38;;
60352;SDS011;46196;52.970;6.954;2022-12-13T06:02:16;69.75;;;22.58;;
60352;SDS011;46196;52.970;6.954;2022-12-13T06:04:42;54.03;;;19.15;;
60352;SDS011;46196;52.970;6.954;2022-12-13T06:07:09;76.70;;;22.17;;
60352;SDS011;46196;52.970;6.954;2022-12-13T06:09:35;63.38;;;21.70;;
60352;SDS011;46196;52.970;6.954;2022-12-13T06:12:01;47.53;;;21.50;;
60352;SDS011;46196;52.970;6.954;2022-12-13T06:14:27;52.88;;;21.13;;
60352;SDS011;46196;52.970;6.954;2022-12-13T06:16:53;42.47;;;21.00;;
60352;SDS011;46196;52.970;6.954;2022-12-13T06:19:22;44.78;;;19.77;;
60352;SDS011;46196;52.970;6.954;2022-12-13T06:21:49;61.17;;;20.55;;
60352;SDS011;46196;52.970;6.954;2022-12-13T06:24:17;45.47;;;18.70;;
60352;SDS011;46196;52.970;6.954;2022-12-13T06:26:44;54.17;;;19.13;;
60352;SDS011;46196;52.970;6.954;2022-12-13T06:29:11;52.70;;;21.23;;
60352;SDS011;46196;52.970;6.954;2022-12-13T06:31:41;72.65;;;22.02;;
60352;SDS011;46196;52.970;6.954;2022-12-13T06:34:07;86.47;;;22.60;;
60352;SDS011;46196;52.970;6.954;2022-12-13T06:36:32;49.83;;;18.65;;
60352;SDS011;46196;52.970;6.954;2022-12-13T06:39:04;55.15;;;19.73;;
60352;SDS011;46196;52.970;6.954;2022-12-13T06:41:31;43.00;;;19.30;;
60352;SDS011;46196;52.970;6.954;2022-12-13T06:43:57;75.07;;;19.98;;
60352;SDS011;46196;52.970;6.954;2022-12-13T06:46:23;39.17;;;17.60;;
60352;SDS011;46196;52.970;6.954;2022-12-13T06:48:50;34.22;;;18.60;;
60352;SDS011;46196;52.970;6.954;2022-12-13T06:51:16;102.80;;;21.30;;
60352;SDS011;46196;52.970;6.954;2022-12-13T06:53:42;43.75;;;18.83;;
60352;SDS011;46196;52.970;6.954;2022-12-13T06:56:09;65.88;;;20.48;;
60352;SDS011;46196;52.970;6.954;2022-12-13T06:58:36;49.88;;;19.75;;
60352;SDS011;46196;52.970;6.954;2022-12-13T07:01:04;71.32;;;21.88;;
60352;SDS011;46196;52.970;6.954;2022-12-13T07:03:35;33.78;;;16.90;;
60352;SDS011;46196;52.970;6.954;2022-12-13T07:06:09;48.75;;;19.15;;
60352;SDS011;46196;52.970;6.954;2022-12-13T07:08:46;47.45;;;19.92;;
60352;SDS011;46196;52.970;6.954;2022-12-13T07:11:14;39.95;;;17.83;;
60352;SDS011;46196;52.970;6.954;2022-12-13T07:13:41;41.17;;;18.50;;
60352;SDS011;46196;52.970;6.954;2022-12-13T07:16:07;82.13;;;20.45;;
60352;SDS011;46196;52.970;6.954;2022-12-13T07:18:34;58.10;;;17.58;;
60352;SDS011;46196;52.970;6.954;2022-12-13T07:21:02;53.55;;;18.98;;
60352;SDS011;46196;52.970;6.954;2022-12-13T07:23:29;43.38;;;18.50;;
60352;SDS011;46196;52.970;6.954;2022-12-13T07:25:55;39.45;;;17.75;;
60352;SDS011;46196;52.970;6.954;2022-12-13T07:28:20;38.42;;;18.30;;
60352;SDS011;46196;52.970;6.954;2022-12-13T07:30:46;36.90;;;18.75;;
60352;SDS011;46196;52.970;6.954;2022-12-13T07:33:13;134.35;;;25.67;;
60352;SDS011;46196;52.970;6.954;2022-12-13T07:35:39;45.13;;;19.55;;
60352;SDS011;46196;52.970;6.954;2022-12-13T07:38:05;44.78;;;16.95;;
60352;SDS011;46196;52.970;6.954;2022-12-13T07:40:36;45.22;;;18.70;;
60352;SDS011;46196;52.970;6.954;2022-12-13T07:43:04;54.00;;;18.98;;
60352;SDS011;46196;52.970;6.954;2022-12-13T07:45:30;64.85;;;23.02;;
60352;SDS011;46196;52.970;6.954;2022-12-13T07:47:56;74.82;;;19.90;;
60352;SDS011;46196;52.970;6.954;2022-12-13T07:50:23;36.60;;;18.90;;
60352;SDS011;46196;52.970;6.954;2022-12-13T07:52:49;53.58;;;18.02;;
60352;SDS011;46196;52.970;6.954;2022-12-13T07:55:16;38.88;;;17.25;;
60352;SDS011;46196;52.970;6.954;2022-12-13T07:57:45;65.75;;;20.83;;
60352;SDS011;46196;52.970;6.954;2022-12-13T08:00:11;34.70;;;16.10;;
60352;SDS011;46196;52.970;6.954;2022-12-13T08:02:39;36.17;;;18.92;;
60352;SDS011;46196;52.970;6.954;2022-12-13T08:05:06;41.03;;;18.05;;
60352;SDS011;46196;52.970;6.954;2022-12-13T08:07:35;59.33;;;19.25;;
60352;SDS011;46196;52.970;6.954;2022-12-13T08:10:01;75.30;;;19.33;;
60352;SDS011;46196;52.970;6.954;2022-12-13T08:12:30;96.60;;;21.05;;
60352;SDS011;46196;52.970;6.954;2022-12-13T08:14:59;35.08;;;17.02;;
60352;SDS011;46196;52.970;6.954;2022-12-13T08:17:26;45.45;;;17.23;;
60352;SDS011;46196;52.970;6.954;2022-12-13T08:19:52;86.47;;;21.23;;
60352;SDS011;46196;52.970;6.954;2022-12-13T08:22:24;37.65;;;16.40;;
60352;SDS011;46196;52.970;6.954;2022-12-13T08:24:51;37.33;;;16.65;;
60352;SDS011;46196;52.970;6.954;2022-12-13T08:27:17;46.42;;;19.83;;
60352;SDS011;46196;52.970;6.954;2022-12-13T08:29:43;38.30;;;18.35;;
60352;SDS011;46196;52.970;6.954;2022-12-13T08:32:10;72.07;;;19.70;;
60352;SDS011;46196;52.970;6.954;2022-12-13T08:34:37;38.17;;;17.23;;
60352;SDS011;46196;52.970;6.954;2022-12-13T08:37:03;46.45;;;18.45;;
60352;SDS011;46196;52.970;6.954;2022-12-13T08:39:30;97.95;;;19.30;;
60352;SDS011;46196;52.970;6.954;2022-12-13T08:42:04;65.93;;;18.00;;
60352;SDS011;46196;52.970;6.954;2022-12-13T08:44:34;41.50;;;17.15;;
60352;SDS011;46196;52.970;6.954;2022-12-13T08:47:00;36.83;;;17.15;;
60352;SDS011;46196;52.970;6.954;2022-12-13T08:49:26;65.03;;;17.35;;
60352;SDS011;46196;52.970;6.954;2022-12-13T08:51:55;50.87;;;19.70;;
60352;SDS011;46196;52.970;6.954;2022-12-13T08:54:21;36.47;;;16.50;;
60352;SDS011;46196;52.970;6.954;2022-12-13T08:56:48;39.47;;;15.70;;
60352;SDS011;46196;52.970;6.954;2022-12-13T08:59:14;43.20;;;18.33;;
60352;SDS011;46196;52.970;6.954;2022-12-13T09:01:40;61.53;;;20.52;;
60352;SDS011;46196;52.970;6.954;2022-12-13T09:04:06;38.28;;;17.13;;
60352;SDS011;46196;52.970;6.954;2022-12-13T09:06:32;41.17;;;18.55;;
60352;SDS011;46196;52.970;6.954;2022-12-13T09:08:59;54.60;;;19.67;;
60352;SDS011;46196;52.970;6.954;2022-12-13T09:11:24;65.03;;;20.00;;
60352;SDS011;46196;52.970;6.954;2022-12-13T09:13:50;38.92;;;19.83;;
60352;SDS011;46196;52.970;6.954;2022-12-13T09:16:17;67.03;;;20.60;;
60352;SDS011;46196;52.970;6.954;2022-12-13T09:18:48;46.80;;;19.13;;
60352;SDS011;46196;52.970;6.954;2022-12-13T09:21:15;50.97;;;19.10;;
60352;SDS011;46196;52.970;6.954;2022-12-13T09:23:41;47.45;;;21.30;;
60352;SDS011;46196;52.970;6.954;2022-12-13T09:26:08;61.25;;;18.95;;
60352;SDS011;46196;52.970;6.954;2022-12-13T09:28:36;58.72;;;20.17;;
60352;SDS011;46196;52.970;6.954;2022-12-13T09:31:08;39.58;;;20.33;;
60352;SDS011;46196;52.970;6.954;2022-12-13T09:33:36;46.35;;;20.33;;
60352;SDS011;46196;52.970;6.954;2022-12-13T09:36:05;43.38;;;19.27;;
60352;SDS011;46196;52.970;6.954;2022-12-13T09:38:33;40.88;;;20.25;;
60352;SDS011;46196;52.970;6.954;2022-12-13T09:41:02;40.47;;;20.38;;
60352;SDS011;46196;52.970;6.954;2022-12-13T09:43:35;38.10;;;18.17;;
60352;SDS011;46196;52.970;6.954;2022-12-13T09:46:07;39.42;;;19.48;;
60352;SDS011;46196;52.970;6.954;2022-12-13T09:48:46;41.83;;;20.80;;
60352;SDS011;46196;52.970;6.954;2022-12-13T09:51:13;37.13;;;18.73;;
60352;SDS011;46196;52.970;6.954;2022-12-13T09:53:39;48.17;;;21.52;;
60352;SDS011;46196;52.970;6.954;2022-12-13T09:56:08;47.22;;;21.55;;
60352;SDS011;46196;52.970;6.954;2022-12-13T09:58:37;40.40;;;19.67;;
60352;SDS011;46196;52.970;6.954;2022-12-13T10:01:06;36.67;;;20.13;;
60352;SDS011;46196;52.970;6.954;2022-12-13T10:03:35;48.35;;;20.05;;
60352;SDS011;46196;52.970;6.954;2022-12-13T10:11:19;38.08;;;19.65;;
60352;SDS011;46196;52.970;6.954;2022-12-13T10:16:35;41.53;;;19.65;;
60352;SDS011;46196;52.970;6.954;2022-12-13T10:21:59;43.20;;;19.80;;
60352;SDS011;46196;52.970;6.954;2022-12-13T10:24:27;46.53;;;20.40;;
60352;SDS011;46196;52.970;6.954;2022-12-13T10:27:14;41.55;;;20.08;;
60352;SDS011;46196;52.970;6.954;2022-12-13T10:32:26;40.50;;;20.63;;
60352;SDS011;46196;52.970;6.954;2022-12-13T10:34:52;41.35;;;20.75;;
60352;SDS011;46196;52.970;6.954;2022-12-13T10:39:57;37.83;;;21.00;;
60352;SDS011;46196;52.970;6.954;2022-12-13T10:42:23;44.80;;;21.48;;
60352;SDS011;46196;52.970;6.954;2022-12-13T10:45:33;38.65;;;20.02;;
60352;SDS011;46196;52.970;6.954;2022-12-13T10:47:41;44.95;;;21.40;;
60352;SDS011;46196;52.970;6.954;2022-12-13T10:50:20;37.92;;;21.13;;
60352;SDS011;46196;52.970;6.954;2022-12-13T10:52:49;39.95;;;20.50;;
60352;SDS011;46196;52.970;6.954;2022-12-13T10:58:03;42.08;;;21.02;;
60352;SDS011;46196;52.970;6.954;2022-12-13T11:06:03;35.67;;;20.75;;
60352;SDS011;46196;52.970;6.954;2022-12-13T11:08:39;40.35;;;19.50;;
60352;SDS011;46196;52.970;6.954;2022-12-13T11:11:06;33.88;;;20.58;;
60352;SDS011;46196;52.970;6.954;2022-12-13T11:16:22;35.85;;;20.67;;
60352;SDS011;46196;52.970;6.954;2022-12-13T11:18:57;39.30;;;19.30;;
60352;SDS011;46196;52.970;6.954;2022-12-13T11:21:28;37.15;;;21.00;;
60352;SDS011;46196;52.970;6.954;2022-12-13T11:23:56;42.30;;;20.63;;
60352;SDS011;46196;52.970;6.954;2022-12-13T11:26:25;37.45;;;21.52;;
60352;SDS011;46196;52.970;6.954;2022-12-13T11:31:55;34.42;;;19.33;;
60352;SDS011;46196;52.970;6.954;2022-12-13T11:39:48;36.35;;;21.23;;
60352;SDS011;46196;52.970;6.954;2022-12-13T11:42:46;33.90;;;19.90;;
60352;SDS011;46196;52.970;6.954;2022-12-13T11:45:26;34.20;;;20.45;;
60352;SDS011;46196;52.970;6.954;2022-12-13T11:48:17;36.67;;;19.60;;
60352;SDS011;46196;52.970;6.954;2022-12-13T11:51:12;34.47;;;19.65;;
60352;SDS011;46196;52.970;6.954;2022-12-13T11:53:53;38.85;;;20.45;;
60352;SDS011;46196;52.970;6.954;2022-12-13T11:59:04;30.20;;;19.27;;
60352;SDS011;46196;52.970;6.954;2022-12-13T12:01:34;37.20;;;20.27;;
60352;SDS011;46196;52.970;6.954;2022-12-13T12:04:12;33.42;;;19.67;;
60352;SDS011;46196;52.970;6.954;2022-12-13T12:06:52;22.95;;;12.93;;
60352;SDS011;46196;52.970;6.954;2022-12-13T12:09:20;32.33;;;18.52;;
60352;SDS011;46196;52.970;6.954;2022-12-13T12:15:04;32.80;;;18.42;;
60352;SDS011;46196;52.970;6.954;2022-12-13T12:17:23;31.55;;;17.70;;
60352;SDS011;46196;52.970;6.954;2022-12-13T12:19:53;32.22;;;18.25;;
60352;SDS011;46196;52.970;6.954;2022-12-13T12:22:37;29.42;;;19.08;;
60352;SDS011;46196;52.970;6.954;2022-12-13T12:25:28;30.52;;;19.42;;
60352;SDS011;46196;52.970;6.954;2022-12-13T12:36:29;30.05;;;17.70;;
60352;SDS011;46196;52.970;6.954;2022-12-13T12:42:15;33.42;;;19.52;;
60352;SDS011;46196;52.970;6.954;2022-12-13T12:45:01;30.38;;;19.08;;
60352;SDS011;46196;52.970;6.954;2022-12-13T13:03:53;27.40;;;17.65;;
60352;SDS011;46196;52.970;6.954;2022-12-13T13:11:42;29.83;;;18.92;;
60352;SDS011;46196;52.970;6.954;2022-12-13T13:19:47;32.22;;;18.38;;
60352;SDS011;46196;52.970;6.954;2022-12-13T13:22:27;28.77;;;17.17;;
60352;SDS011;46196;52.970;6.954;2022-12-13T13:27:32;29.88;;;18.00;;
60352;SDS011;46196;52.970;6.954;2022-12-13T13:30:15;49.03;;;26.77;;
60352;SDS011;46196;52.970;6.954;2022-12-13T13:32:50;34.38;;;19.63;;
60352;SDS011;46196;52.970;6.954;2022-12-13T13:38:46;26.92;;;15.93;;
60352;SDS011;46196;52.970;6.954;2022-12-13T13:58:29;29.15;;;16.88;;
60352;SDS011;46196;52.970;6.954;2022-12-13T14:07:10;27.83;;;15.95;;
60352;SDS011;46196;52.970;6.954;2022-12-13T14:15:23;33.78;;;17.88;;
60352;SDS011;46196;52.970;6.954;2022-12-13T14:29:38;32.25;;;17.05;;
60352;SDS011;46196;52.970;6.954;2022-12-13T14:32:07;32.70;;;18.52;;
60352;SDS011;46196;52.970;6.954;2022-12-13T14:34:39;24.63;;;16.90;;
60352;SDS011;46196;52.970;6.954;2022-12-13T14:37:05;43.90;;;24.73;;
60352;SDS011;46196;52.970;6.954;2022-12-13T14:39:54;32.40;;;18.42;;
60352;SDS011;46196;52.970;6.954;2022-12-13T14:42:23;36.50;;;22.70;;
60352;SDS011;46196;52.970;6.954;2022-12-13T14:47:45;40.03;;;25.02;;
60352;SDS011;46196;52.970;6.954;2022-12-13T14:50:13;34.88;;;20.92;;
60352;SDS011;46196;52.970;6.954;2022-12-13T14:52:42;42.60;;;26.30;;
60352;SDS011;46196;52.970;6.954;2022-12-13T14:55:23;35.35;;;20.48;;
60352;SDS011;46196;52.970;6.954;2022-12-13T14:57:55;28.88;;;18.90;;
60352;SDS011;46196;52.970;6.954;2022-12-13T15:00:31;33.67;;;21.10;;
60352;SDS011;46196;52.970;6.954;2022-12-13T15:03:00;34.65;;;19.38;;
60352;SDS011;46196;52.970;6.954;2022-12-13T15:05:29;35.78;;;21.35;;
60352;SDS011;46196;52.970;6.954;2022-12-13T15:07:57;29.00;;;17.83;;
60352;SDS011;46196;52.970;6.954;2022-12-13T15:12:52;32.40;;;19.58;;
60352;SDS011;46196;52.970;6.954;2022-12-13T15:15:21;31.75;;;19.42;;
60352;SDS011;46196;52.970;6.954;2022-12-13T15:17:48;31.30;;;21.13;;
60352;SDS011;46196;52.970;6.954;2022-12-13T15:20:40;33.83;;;19.88;;
60352;SDS011;46196;52.970;6.954;2022-12-13T15:23:26;38.63;;;19.52;;
60352;SDS011;46196;52.970;6.954;2022-12-13T15:26:15;30.33;;;18.00;;
60352;SDS011;46196;52.970;6.954;2022-12-13T15:28:46;27.50;;;17.73;;
60352;SDS011;46196;52.970;6.954;2022-12-13T15:31:15;30.02;;;18.00;;
60352;SDS011;46196;52.970;6.954;2022-12-13T15:33:42;30.75;;;17.67;;
60352;SDS011;46196;52.970;6.954;2022-12-13T15:36:16;32.28;;;18.38;;
60352;SDS011;46196;52.970;6.954;2022-12-13T15:38:58;34.72;;;19.73;;
60352;SDS011;46196;52.970;6.954;2022-12-13T15:44:15;29.52;;;17.60;;
60352;SDS011;46196;52.970;6.954;2022-12-13T15:46:54;33.08;;;17.83;;
60352;SDS011;46196;52.970;6.954;2022-12-13T15:49:31;30.02;;;18.35;;
60352;SDS011;46196;52.970;6.954;2022-12-13T15:52:04;32.10;;;19.20;;
60352;SDS011;46196;52.970;6.954;2022-12-13T15:54:55;31.10;;;18.60;;
60352;SDS011;46196;52.970;6.954;2022-12-13T15:57:24;32.67;;;20.48;;
60352;SDS011;46196;52.970;6.954;2022-12-13T16:00:04;36.65;;;19.45;;
60352;SDS011;46196;52.970;6.954;2022-12-13T16:05:19;30.35;;;17.70;;
60352;SDS011;46196;52.970;6.954;2022-12-13T16:07:50;35.10;;;21.20;;
60352;SDS011;46196;52.970;6.954;2022-12-13T16:10:18;39.65;;;24.38;;
60352;SDS011;46196;52.970;6.954;2022-12-13T16:12:48;42.25;;;25.45;;
60352;SDS011;46196;52.970;6.954;2022-12-13T16:15:24;39.67;;;22.45;;
60352;SDS011;46196;52.970;6.954;2022-12-13T16:18:13;41.63;;;22.15;;
60352;SDS011;46196;52.970;6.954;2022-12-13T16:20:45;42.05;;;22.67;;
60352;SDS011;46196;52.970;6.954;2022-12-13T16:23:11;38.47;;;21.95;;
60352;SDS011;46196;52.970;6.954;2022-12-13T16:25:37;33.80;;;20.08;;
60352;SDS011;46196;52.970;6.954;2022-12-13T16:28:04;37.08;;;20.45;;
60352;SDS011;46196;52.970;6.954;2022-12-13T16:33:21;39.55;;;22.45;;
60352;SDS011;46196;52.970;6.954;2022-12-13T16:35:48;32.00;;;19.88;;
60352;SDS011;46196;52.970;6.954;2022-12-13T16:38:15;33.72;;;20.33;;
60352;SDS011;46196;52.970;6.954;2022-12-13T16:40:42;37.40;;;21.15;;
60352;SDS011;46196;52.970;6.954;2022-12-13T16:43:16;37.20;;;19.98;;
60352;SDS011;46196;52.970;6.954;2022-12-13T16:45:43;39.90;;;21.55;;
60352;SDS011;46196;52.970;6.954;2022-12-13T16:48:12;35.72;;;20.52;;
60352;SDS011;46196;52.970;6.954;2022-12-13T16:50:42;37.50;;;20.33;;
60352;SDS011;46196;52.970;6.954;2022-12-13T16:53:10;34.42;;;20.00;;
60352;SDS011;46196;52.970;6.954;2022-12-13T16:55:36;36.25;;;20.33;;
60352;SDS011;46196;52.970;6.954;2022-12-13T16:58:05;33.72;;;19.60;;
60352;SDS011;46196;52.970;6.954;2022-12-13T17:00:34;38.67;;;20.90;;
60352;SDS011;46196;52.970;6.954;2022-12-13T17:03:00;35.67;;;21.58;;
60352;SDS011;46196;52.970;6.954;2022-12-13T17:05:26;39.63;;;22.33;;
60352;SDS011;46196;52.970;6.954;2022-12-13T17:07:53;44.28;;;23.50;;
60352;SDS011;46196;52.970;6.954;2022-12-13T17:10:20;52.25;;;29.88;;
60352;SDS011;46196;52.970;6.954;2022-12-13T17:12:46;57.90;;;31.55;;
60352;SDS011;46196;52.970;6.954;2022-12-13T17:15:12;46.33;;;26.85;;
60352;SDS011;46196;52.970;6.954;2022-12-13T17:17:39;54.50;;;33.17;;
60352;SDS011;46196;52.970;6.954;2022-12-13T17:20:12;43.63;;;27.33;;
60352;SDS011;46196;52.970;6.954;2022-12-13T17:22:39;41.13;;;23.38;;